Time;durP1;ratioP1;P1;durP2;ratioP2;P2;SDS_P1;SDS_P2;PMS_P1;PMS_P2;Temp;Humidity;BMP_temperature;BMP_pressure;BME280_temperature;BME280_humidity;BME280_pressure;Samples;Min_cycle;Max_cycle;Signal;HPM_P1;HPM_P2
2021/04/06 00:00:44;;;;;;;6.07;3.20;;;;;;;-0.95;79.22;99589.19;8796847;33;20233;-71
2021/04/06 00:05:51;;;;;;;3.93;2.70;;;;;;;-0.93;79.12;99597.06;8797967;33;20227;-71
2021/04/06 00:10:57;;;;;;;3.27;2.77;;;;;;;-0.81;79.35;99590.34;8797485;33;20290;-72
2021/04/06 00:16:02;;;;;;;6.63;3.20;;;;;;;-0.74;78.70;99613.72;8830545;33;20743;-71
2021/04/06 00:21:08;;;;;;;5.33;2.90;;;;;;;-0.61;78.04;99619.28;8830827;33;20802;-71
2021/04/06 00:26:10;;;;;;;4.33;2.73;;;;;;;-0.50;77.69;99611.69;8856211;33;20230;-71
2021/04/06 00:31:13;;;;;;;6.23;3.50;;;;;;;-0.59;77.84;99620.06;8855941;33;20238;-71
2021/04/06 00:36:25;;;;;;;6.93;3.63;;;;;;;-0.57;77.24;99626.13;8856139;33;20223;-72
2021/04/06 00:41:27;;;;;;;5.43;3.30;;;;;;;-0.43;77.01;99635.19;8855460;33;20243;-71
2021/04/06 00:46:32;;;;;;;5.70;3.50;;;;;;;-0.28;76.55;99642.34;8856171;33;20234;-71
2021/04/06 00:51:39;;;;;;;3.77;2.50;;;;;;;-0.23;76.29;99653.53;8855452;33;20219;-71
2021/04/06 00:56:45;;;;;;;3.87;2.93;;;;;;;-0.42;76.50;99666.75;8830970;33;20222;-71
2021/04/06 01:01:52;;;;;;;5.93;3.00;;;;;;;-0.48;76.79;99668.84;8855100;33;20230;-71
2021/04/06 01:07:08;;;;;;;3.13;2.70;;;;;;;-0.41;75.83;99679.03;8855404;33;21300;-71
2021/04/06 01:12:13;;;;;;;4.80;2.90;;;;;;;-0.47;75.91;99689.84;8854657;33;20221;-71
2021/04/06 01:17:23;;;;;;;3.63;2.80;;;;;;;-0.61;75.84;99689.66;8807096;33;20766;-71
2021/04/06 01:22:28;;;;;;;3.83;2.63;;;;;;;-0.69;75.87;99691.78;8795786;33;20873;-72
2021/04/06 01:27:31;;;;;;;6.03;2.50;;;;;;;-0.74;75.28;99697.25;8795815;33;20230;-71
2021/04/06 01:32:34;;;;;;;6.30;2.60;;;;;;;-0.86;75.70;99703.09;8795704;33;20229;-72
2021/04/06 01:37:37;;;;;;;4.57;2.90;;;;;;;-0.81;75.48;99711.66;8795600;33;21512;-72
2021/04/06 01:42:41;;;;;;;8.43;3.43;;;;;;;-0.90;75.68;99706.81;8794427;33;20218;-72
2021/04/06 01:47:43;;;;;;;6.10;2.90;;;;;;;-0.85;75.52;99718.84;8795382;33;20227;-72
2021/04/06 01:52:49;;;;;;;4.53;3.13;;;;;;;-0.84;75.54;99717.06;8794712;33;20743;-72
2021/04/06 01:57:55;;;;;;;5.47;3.60;;;;;;;-0.80;75.85;99721.28;8794982;33;20219;-72
2021/04/06 02:03:02;;;;;;;5.47;3.20;;;;;;;-0.65;75.71;99714.47;8794817;33;20230;-72
2021/04/06 02:08:09;;;;;;;5.90;3.57;;;;;;;-0.66;76.10;99716.22;8794758;33;20227;-72
2021/04/06 02:13:14;;;;;;;5.17;3.37;;;;;;;-0.56;75.42;99733.34;8794384;33;20234;-72
2021/04/06 02:18:21;;;;;;;6.67;2.80;;;;;;;-0.65;76.00;99723.22;8853840;33;20221;-72
2021/04/06 02:23:24;;;;;;;9.53;3.90;;;;;;;-0.94;76.90;99719.25;8852397;33;20734;-72
2021/04/06 02:28:28;;;;;;;11.37;4.70;;;;;;;-0.62;76.64;99725.72;8853541;33;20222;-72
2021/04/06 02:33:33;;;;;;;10.77;5.27;;;;;;;-0.63;76.42;99716.13;8853365;33;20731;-72
2021/04/06 02:38:40;;;;;;;9.83;3.73;;;;;;;-1.11;77.27;99720.00;8853415;33;20321;-72
2021/04/06 02:43:53;;;;;;;10.70;4.53;;;;;;;-0.57;76.02;99733.44;8806245;33;20231;-72
2021/04/06 02:48:59;;;;;;;9.53;4.80;;;;;;;-0.54;76.11;99730.66;8794528;33;20234;-72
2021/04/06 02:54:01;;;;;;;12.80;5.73;;;;;;;-0.44;76.04;99737.22;8794151;33;20659;-72
2021/04/06 02:59:15;;;;;;;13.97;4.63;;;;;;;-0.81;76.50;99733.59;8794596;33;20223;-72
2021/04/06 03:04:22;;;;;;;14.13;6.23;;;;;;;-0.40;75.81;99722.97;8794085;33;20230;-72
2021/04/06 03:09:26;;;;;;;10.70;5.80;;;;;;;-0.38;75.45;99726.41;8794176;33;20246;-72
2021/04/06 03:14:29;;;;;;;10.57;5.40;;;;;;;-0.32;75.31;99738.44;8798428;33;20218;-72
2021/04/06 03:19:32;;;;;;;11.70;4.87;;;;;;;-0.47;76.07;99728.59;8852922;33;20237;-72
2021/04/06 03:24:34;;;;;;;8.77;4.60;;;;;;;-0.41;75.45;99737.09;8852365;33;20240;-72
2021/04/06 03:29:37;;;;;;;10.17;4.70;;;;;;;-0.38;75.78;99741.38;8853257;33;20890;-72
2021/04/06 03:34:39;;;;;;;6.90;3.87;;;;;;;-0.50;76.00;99745.41;8855639;33;20222;-72
2021/04/06 03:39:42;;;;;;;6.27;3.50;;;;;;;-0.77;76.32;99747.50;8857968;33;20225;-72
2021/04/06 03:44:45;;;;;;;4.67;3.43;;;;;;;-0.39;75.64;99744.91;8857273;33;20227;-72
2021/04/06 03:49:49;;;;;;;4.03;2.80;;;;;;;-0.36;75.78;99740.34;8857500;33;20223;-72
2021/04/06 03:54:51;;;;;;;8.33;3.40;;;;;;;-0.41;75.89;99739.72;8857494;33;20222;-72
2021/04/06 03:59:54;;;;;;;5.60;3.13;;;;;;;-0.62;75.82;99744.19;8857449;33;20236;-72
2021/04/06 04:04:57;;;;;;;6.60;2.87;;;;;;;-0.31;75.73;99748.91;8857315;33;20234;-72
2021/04/06 04:09:59;;;;;;;6.33;3.37;;;;;;;-0.37;75.56;99743.09;8857555;33;20896;-72
2021/04/06 04:15:02;;;;;;;5.40;3.50;;;;;;;-0.36;75.63;99739.50;8856761;33;20218;-72
2021/04/06 04:20:09;;;;;;;5.37;3.47;;;;;;;-0.34;75.33;99748.22;8857172;33;20745;-73
2021/04/06 04:25:13;;;;;;;10.67;3.53;;;;;;;-0.35;75.56;99742.09;8856983;33;20279;-72
2021/04/06 04:30:35;;;;;;;6.80;3.40;;;;;;;-0.38;75.82;99744.00;8856416;33;20945;-72
2021/04/06 04:35:38;;;;;;;7.50;3.20;;;;;;;-0.54;76.39;99743.84;8856372;33;20261;-72
2021/04/06 04:40:43;;;;;;;9.90;4.13;;;;;;;-0.63;76.26;99744.25;8856977;33;20214;-72
2021/04/06 04:45:47;;;;;;;5.07;2.87;;;;;;;-0.54;76.19;99738.56;8855613;33;20723;-72
2021/04/06 04:50:49;;;;;;;9.17;3.20;;;;;;;-0.72;75.95;99738.47;8856439;33;20291;-72
2021/04/06 04:55:51;;;;;;;5.77;3.50;;;;;;;-0.34;76.09;99756.13;8855837;33;20226;-72
2021/04/06 05:00:54;;;;;;;8.50;3.40;;;;;;;-0.61;76.43;99756.44;8857084;33;20234;-72
2021/04/06 05:05:57;;;;;;;8.27;2.90;;;;;;;-0.41;76.82;99763.47;8855910;33;20238;-72
2021/04/06 05:10:59;;;;;;;4.53;2.60;;;;;;;-0.56;77.34;99762.38;8830919;33;20237;-72
2021/04/06 05:16:02;;;;;;;7.57;3.20;;;;;;;-0.46;77.66;99769.91;8821962;33;20234;-72
2021/04/06 05:21:05;;;;;;;4.63;2.97;;;;;;;-0.60;77.93;99766.09;8797106;33;20227;-72
2021/04/06 05:26:08;;;;;;;5.30;2.57;;;;;;;-0.52;77.34;99766.59;8797168;33;20269;-72
2021/04/06 05:31:11;;;;;;;7.10;3.10;;;;;;;-0.60;76.96;99778.44;8796428;33;20732;-72
2021/04/06 05:36:13;;;;;;;8.63;4.67;;;;;;;-0.70;77.26;99780.59;8797174;33;20223;-72
2021/04/06 05:41:16;;;;;;;10.63;4.33;;;;;;;-0.61;77.17;99776.69;8795678;33;20231;-72
2021/04/06 05:46:19;;;;;;;11.80;4.73;;;;;;;-0.43;76.29;99796.16;8796470;33;21795;-72
2021/04/06 05:51:24;;;;;;;8.37;3.43;;;;;;;-0.44;76.25;99789.97;8797276;33;20743;-72
2021/04/06 05:56:26;;;;;;;10.00;3.60;;;;;;;-0.29;76.09;99802.50;8794933;33;20634;-72
2021/04/06 06:01:31;;;;;;;8.23;2.93;;;;;;;-0.48;76.13;99814.81;8795758;33;20251;-73
2021/04/06 06:06:33;;;;;;;4.27;2.97;;;;;;;-0.56;75.56;99816.94;8794629;33;20235;-72
2021/04/06 06:11:56;;;;;;;6.70;2.90;;;;;;;-0.68;76.50;99820.13;8795364;33;20233;-72
2021/04/06 06:17:13;;;;;;;6.67;3.43;;;;;;;-0.51;76.54;99802.59;8841260;33;20241;-72
2021/04/06 06:22:17;;;;;;;4.37;2.37;;;;;;;-0.12;75.28;99807.00;8854136;33;20629;-72
2021/04/06 06:27:34;;;;;;;8.93;3.60;;;;;;;-0.33;76.45;99805.34;8854197;33;20230;-73
2021/04/06 06:32:37;;;;;;;7.70;2.83;;;;;;;-0.75;77.48;99809.81;8854196;33;20678;-72
2021/04/06 06:37:40;;;;;;;7.13;3.17;;;;;;;-0.44;77.10;99805.81;8854189;33;20308;-73
2021/04/06 06:42:43;;;;;;;6.20;2.90;;;;;;;-0.08;76.25;99807.75;8853668;33;20252;-73
2021/04/06 06:47:55;;;;;;;7.53;3.10;;;;;;;-0.20;76.07;99810.94;8854805;33;20225;-73
2021/04/06 06:52:58;;;;;;;12.87;3.37;;;;;;;-0.22;75.85;99805.72;8853683;33;20218;-71
2021/04/06 06:58:02;;;;;;;6.80;3.03;;;;;;;0.14;74.94;99811.09;8853663;33;20629;-71
2021/04/06 07:03:15;;;;;;;5.60;3.17;;;;;;;0.27;73.87;99806.06;8828215;33;20711;-71
2021/04/06 07:08:30;;;;;;;4.37;2.47;;;;;;;0.44;73.27;99802.63;8855218;33;20229;-72
2021/04/06 07:13:34;;;;;;;8.20;3.30;;;;;;;0.74;73.74;99795.00;8847526;33;20642;-73
2021/04/06 07:18:38;;;;;;;6.30;2.13;;;;;;;0.43;72.56;99800.06;8800781;33;20370;-73
2021/04/06 07:23:50;;;;;;;8.50;2.80;;;;;;;-0.02;73.77;99804.81;8798657;33;20226;-73
2021/04/06 07:28:53;;;;;;;9.47;2.23;;;;;;;0.09;73.49;99791.09;8800242;33;20271;-73
2021/04/06 07:33:58;;;;;;;10.77;3.00;;;;;;;0.87;72.81;99787.28;8800319;33;20260;-73
2021/04/06 07:39:06;;;;;;;9.90;3.27;;;;;;;0.56;72.78;99794.09;8839948;33;20238;-72
2021/04/06 07:44:10;;;;;;;9.63;2.70;;;;;;;0.34;72.33;99820.69;8842845;33;20253;-72
2021/04/06 07:49:36;;;;;;;8.60;3.10;;;;;;;0.16;73.10;99792.50;8798358;33;20233;-72
2021/04/06 07:54:47;;;;;;;5.97;2.47;;;;;;;0.62;72.76;99795.56;8798004;33;20743;-72
2021/04/06 07:59:53;;;;;;;8.03;2.87;;;;;;;0.36;72.93;99794.22;8843574;33;20275;-72
2021/04/06 08:05:01;;;;;;;11.60;3.70;;;;;;;1.17;71.92;99800.72;8839618;33;20230;-72
2021/04/06 08:10:33;;;;;;;8.60;3.00;;;;;;;0.93;71.30;99805.47;8857375;33;20241;-73
2021/04/06 08:15:35;;;;;;;9.13;2.60;;;;;;;0.82;71.06;99802.50;8856667;33;20214;-73
2021/04/06 08:20:47;;;;;;;6.43;1.70;;;;;;;0.44;69.44;99809.69;8829443;33;20225;-73
2021/04/06 08:25:53;;;;;;;4.87;2.73;;;;;;;1.28;71.10;99792.25;8830989;33;20299;-73
2021/04/06 08:31:30;;;;;;;5.77;2.20;;;;;;;1.52;67.90;99798.06;8819204;33;20223;-73
2021/04/06 08:36:33;;;;;;;3.03;1.97;;;;;;;1.44;66.75;99784.38;8827702;33;20633;-72
2021/04/06 08:41:38;;;;;;;7.47;3.00;;;;;;;1.14;67.91;99800.03;8850151;33;20816;-72
2021/04/06 08:46:50;;;;;;;5.77;3.10;;;;;;;2.02;64.86;99801.56;8854252;33;20218;-72
2021/04/06 08:51:56;;;;;;;8.17;2.30;;;;;;;1.23;65.49;99796.91;8828908;33;20272;-72
2021/04/06 08:57:00;;;;;;;2.67;2.20;;;;;;;1.02;66.21;99805.03;8851168;33;20218;-72
2021/04/06 09:02:04;;;;;;;6.57;2.57;;;;;;;1.96;65.32;99813.34;8853607;33;20930;-73
2021/04/06 09:07:18;;;;;;;11.07;2.07;;;;;;;2.22;59.90;99784.53;8853596;33;20644;-72
2021/04/06 09:12:21;;;;;;;7.27;2.40;;;;;;;2.56;61.39;99788.84;8853176;33;20715;-72
2021/04/06 09:17:27;;;;;;;7.70;2.47;;;;;;;2.25;61.60;99792.31;8804254;33;20259;-73
2021/04/06 09:22:30;;;;;;;4.53;2.03;;;;;;;1.83;64.05;99786.66;8795165;33;20950;-72
2021/04/06 09:27:33;;;;;;;8.67;2.30;;;;;;;2.70;63.22;99788.03;8791481;33;20287;-73
2021/04/06 09:32:35;;;;;;;5.47;2.67;;;;;;;2.75;62.19;99778.03;8815072;33;20722;-73
2021/04/06 09:37:38;;;;;;;5.53;2.33;;;;;;;2.93;60.68;99773.44;8852780;33;20230;-73
2021/04/06 09:42:40;;;;;;;5.30;2.13;;;;;;;3.05;60.31;99773.56;8799519;33;20635;-72
2021/04/06 09:47:44;;;;;;;3.57;1.43;;;;;;;3.35;55.84;99774.47;8794482;33;20736;-72
2021/04/06 09:52:47;;;;;;;4.03;2.13;;;;;;;2.37;60.83;99747.44;8799595;33;20229;-72
2021/04/06 09:57:54;;;;;;;5.33;2.30;;;;;;;1.96;62.09;99765.66;8800218;33;20749;-73
2021/04/06 10:03:06;;;;;;;3.77;2.50;;;;;;;3.57;58.31;99750.97;8855197;33;20742;-74
2021/04/06 10:08:09;;;;;;;9.17;2.47;;;;;;;3.04;57.29;99748.00;8853373;33;20268;-73
2021/04/06 10:13:12;;;;;;;2.57;1.77;;;;;;;2.21;58.36;99759.84;8854095;33;20233;-73
2021/04/06 10:18:17;;;;;;;10.23;3.13;;;;;;;2.75;59.23;99749.69;8854004;33;20227;-73
2021/04/06 10:23:33;;;;;;;8.70;2.13;;;;;;;2.87;61.84;99763.19;8853169;33;20214;-73
2021/04/06 10:28:36;;;;;;;5.63;2.30;;;;;;;4.36;58.50;99734.41;8853464;33;20229;-73
2021/04/06 10:33:39;;;;;;;6.63;2.20;;;;;;;4.61;54.48;99722.16;8827933;33;20237;-73
2021/04/06 10:38:43;;;;;;;6.17;2.50;;;;;;;3.81;55.87;99731.78;8828192;33;20238;-73
2021/04/06 10:43:48;;;;;;;4.67;2.40;;;;;;;3.36;56.09;99725.75;8852472;33;20295;-73
2021/04/06 10:48:52;;;;;;;3.30;2.50;;;;;;;3.74;55.80;99696.78;8853722;33;20222;-73
2021/04/06 10:53:58;;;;;;;3.53;2.03;;;;;;;4.08;52.88;99710.56;8854300;33;20218;-73
2021/04/06 10:59:05;;;;;;;4.57;1.57;;;;;;;3.35;54.11;99700.16;8795511;33;20227;-73
2021/04/06 11:04:12;;;;;;;8.10;3.10;;;;;;;4.65;56.69;99690.84;8793678;33;20215;-73
2021/04/06 11:09:19;;;;;;;7.05;2.47;;;;;;;4.38;52.93;99678.44;8793650;33;20257;-73
2021/04/06 11:14:27;;;;;;;6.00;2.23;;;;;;;4.67;55.25;99689.81;8778691;33;20215;-72
2021/04/06 11:19:32;;;;;;;4.40;1.70;;;;;;;5.81;48.71;99677.41;8735151;33;21422;-73
2021/04/06 11:24:36;;;;;;;2.55;1.58;;;;;;;4.77;50.44;99682.03;8736411;33;20262;-72
2021/04/06 11:29:40;;;;;;;3.65;1.38;;;;;;;3.58;59.32;99707.50;8739545;33;20284;-72
2021/04/06 11:34:43;;;;;;;2.40;1.40;;;;;;;4.01;60.34;99680.03;8734318;33;20254;-71
2021/04/06 11:39:48;;;;;;;1.30;1.20;;;;;;;4.00;58.91;99688.94;8734351;33;20224;-73
2021/04/06 11:44:50;;;;;;;3.10;1.63;;;;;;;4.39;60.50;99698.78;8734254;33;20642;-72
2021/04/06 11:49:52;;;;;;;1.35;1.25;;;;;;;3.96;59.99;99693.59;8733814;33;20235;-72
2021/04/06 11:54:55;;;;;;;2.90;1.67;;;;;;;1.60;70.31;99712.94;8734022;33;20262;-73
2021/04/06 11:59:58;;;;;;;4.83;1.63;;;;;;;1.38;70.67;99700.84;8739512;33;20862;-72
2021/04/06 12:05:00;;;;;;;7.07;2.17;;;;;;;4.27;63.42;99691.59;8738632;33;20255;-72
2021/04/06 12:10:05;;;;;;;6.28;2.03;;;;;;;5.90;57.96;99667.91;8739005;33;20232;-72
2021/04/06 12:15:08;;;;;;;4.88;1.83;;;;;;;4.90;53.87;99666.09;8761294;33;20250;-72
2021/04/06 12:20:13;;;;;;;3.60;1.45;;;;;;;6.38;51.31;99658.06;8796939;33;20238;-72
2021/04/06 12:25:17;;;;;;;2.78;1.33;;;;;;;6.44;52.14;99661.25;8797275;33;20269;-72
2021/04/06 12:30:20;;;;;;;5.40;1.70;;;;;;;6.83;50.88;99634.22;8796924;33;20735;-71
2021/04/06 12:35:23;;;;;;;1.77;1.65;;;;;;;7.18;48.76;99627.09;8797032;33;20219;-72
2021/04/06 12:40:28;;;;;;;1.92;1.58;;;;;;;4.26;53.49;99623.44;8796869;33;20230;-72
2021/04/06 12:45:30;;;;;;;1.30;1.20;;;;;;;4.56;56.48;99650.63;8796648;33;20254;-72
2021/04/06 12:50:32;;;;;;;1.45;1.30;;;;;;;3.76;57.83;99644.41;8796969;33;21773;-72
2021/04/06 12:55:35;;;;;;;4.45;2.08;;;;;;;3.14;60.80;99638.63;8796289;33;20238;-72
2021/04/06 13:00:38;;;;;;;6.30;2.17;;;;;;;2.08;67.23;99651.03;8796362;33;20641;-72
2021/04/06 13:05:40;;;;;;;8.23;2.90;;;;;;;2.74;68.22;99633.09;8795826;33;20229;-73
2021/04/06 13:10:45;;;;;;;9.63;2.00;;;;;;;2.49;63.71;99625.72;8796505;33;20631;-73
2021/04/06 13:15:47;;;;;;;3.23;1.80;;;;;;;3.03;65.55;99631.31;8790871;33;20218;-73
2021/04/06 13:20:50;;;;;;;3.87;1.93;;;;;;;5.57;61.85;99628.53;8796319;33;20218;-73
2021/04/06 13:25:53;;;;;;;4.18;1.60;;;;;;;6.81;52.48;99605.94;8795257;33;20231;-72
2021/04/06 13:30:55;;;;;;;2.75;1.40;;;;;;;4.68;51.87;99610.84;8795116;33;20235;-73
2021/04/06 13:35:58;;;;;;;1.20;1.10;;;;;;;5.77;47.85;99596.00;8794507;33;20218;-72
2021/04/06 13:41:01;;;;;;;5.32;2.05;;;;;;;5.06;51.04;99595.75;8795556;33;20249;-72
2021/04/06 13:46:03;;;;;;;2.05;1.38;;;;;;;6.25;47.69;99598.59;8778463;33;20235;-72
2021/04/06 13:51:06;;;;;;;3.17;1.42;;;;;;;4.02;50.52;99584.25;8758616;33;20220;-72
2021/04/06 13:56:09;;;;;;;1.15;1.05;;;;;;;5.10;47.39;99598.19;8736467;33;20649;-72
2021/04/06 14:01:11;;;;;;;2.33;1.17;;;;;;;5.01;48.29;99581.06;8758055;33;20223;-72
2021/04/06 14:06:14;;;;;;;3.92;1.55;;;;;;;5.51;47.53;99581.88;8793825;33;20223;-72
2021/04/06 14:11:17;;;;;;;2.78;1.27;;;;;;;6.87;44.93;99567.22;8794062;33;20227;-72
2021/04/06 14:16:19;;;;;;;1.40;1.10;;;;;;;5.55;48.14;99537.25;8791492;33;21005;-70
2021/04/06 14:21:21;;;;;;;2.90;1.30;;;;;;;4.81;50.25;99577.09;8772932;33;21309;-71
2021/04/06 14:26:25;;;;;;;2.28;1.05;;;;;;;2.51;65.90;99658.31;8782490;33;20261;-71
2021/04/06 14:31:29;;;;;;;2.47;1.30;;;;;;;0.94;71.99;99659.09;8762919;33;20719;-71
2021/04/06 14:36:31;;;;;;;1.40;1.13;;;;;;;0.55;74.02;99654.06;8764286;33;20215;-71
2021/04/06 14:41:34;;;;;;;1.20;1.10;;;;;;;0.65;74.22;99665.03;8763203;33;20250;-71
2021/04/06 14:46:37;;;;;;;2.53;1.20;;;;;;;0.50;74.65;99658.78;8742773;33;20243;-71
2021/04/06 14:51:39;;;;;;;2.40;1.23;;;;;;;1.03;75.19;99660.41;8762705;33;20751;-72
2021/04/06 14:56:42;;;;;;;1.17;1.07;;;;;;;1.46;72.49;99658.09;8793922;33;20226;-72
2021/04/06 15:01:47;;;;;;;1.83;1.40;;;;;;;1.25;71.76;99666.25;8793570;33;20889;-72
2021/04/06 15:06:49;;;;;;;2.90;1.60;;;;;;;1.27;72.10;99661.75;8793561;33;21383;-72
2021/04/06 15:11:55;;;;;;;2.10;1.30;;;;;;;1.22;71.79;99645.25;8793869;33;20636;-72
2021/04/06 15:16:57;;;;;;;1.63;1.30;;;;;;;1.79;72.13;99644.78;8792822;33;20231;-73
2021/04/06 15:22:03;;;;;;;4.90;1.63;;;;;;;2.04;71.79;99640.72;8792313;33;20226;-72
2021/04/06 15:27:08;;;;;;;2.30;1.80;;;;;;;2.10;67.79;99630.63;8792769;33;20246;-72
2021/04/06 15:32:11;;;;;;;2.93;1.37;;;;;;;3.86;69.07;99616.28;8797928;33;20215;-71
2021/04/06 15:37:13;;;;;;;1.23;1.13;;;;;;;3.34;63.90;99614.31;8798650;33;20227;-71
2021/04/06 15:42:16;;;;;;;2.07;1.33;;;;;;;2.97;65.12;99607.81;8797031;33;20222;-72
2021/04/06 15:47:19;;;;;;;2.03;1.37;;;;;;;3.24;70.06;99627.34;8798008;33;20365;-72
2021/04/06 15:52:31;;;;;;;2.77;1.40;;;;;;;2.43;69.76;99629.59;8803537;33;20751;-74
2021/04/06 15:57:34;;;;;;;4.40;1.70;;;;;;;2.38;71.29;99629.00;8798430;33;20243;-71
2021/04/06 16:02:38;;;;;;;4.53;2.30;;;;;;;2.24;72.27;99640.41;8797012;33;21544;-72
2021/04/06 16:07:40;;;;;;;5.30;2.10;;;;;;;1.63;72.09;99638.63;8797120;33;20249;-71
2021/04/06 16:12:43;;;;;;;4.77;2.27;;;;;;;1.33;73.70;99636.72;8795631;33;20630;-71
2021/04/06 16:17:47;;;;;;;3.63;1.73;;;;;;;1.50;74.66;99634.00;8783462;33;20241;-71
2021/04/06 16:22:53;;;;;;;4.67;2.63;;;;;;;2.11;74.12;99615.56;8783087;33;20215;-71
2021/04/06 16:27:56;;;;;;;3.97;2.87;;;;;;;3.04;72.76;99625.94;8793360;33;20234;-72
2021/04/06 16:32:59;;;;;;;2.80;2.50;;;;;;;3.62;70.68;99616.09;8796417;33;20230;-73
2021/04/06 16:38:01;;;;;;;3.97;1.93;;;;;;;3.81;73.08;99612.22;8796619;33;20227;-72
2021/04/06 16:43:04;;;;;;;3.50;1.90;;;;;;;2.80;70.39;99603.56;8797277;33;20223;-73
2021/04/06 16:48:08;;;;;;;2.33;1.63;;;;;;;2.58;70.19;99609.31;8795957;33;20747;-72
2021/04/06 16:53:15;;;;;;;2.83;2.00;;;;;;;4.12;71.83;99606.59;8795772;33;20231;-72
2021/04/06 16:58:19;;;;;;;2.37;1.70;;;;;;;4.07;62.68;99600.72;8796787;33;20317;-71
2021/04/06 17:03:21;;;;;;;4.73;1.50;;;;;;;2.69;62.85;99605.97;8855077;33;20646;-72
2021/04/06 17:08:23;;;;;;;2.53;1.60;;;;;;;2.44;64.57;99606.56;8854827;33;20226;-72
2021/04/06 17:13:27;;;;;;;2.60;1.33;;;;;;;1.89;61.20;99619.47;8834397;33;20229;-72
2021/04/06 17:18:29;;;;;;;4.47;2.20;;;;;;;2.01;63.60;99625.88;8858871;33;20226;-72
2021/04/06 17:23:32;;;;;;;2.93;1.67;;;;;;;1.78;64.10;99636.91;8854783;33;20261;-72
2021/04/06 17:28:36;;;;;;;6.57;3.30;;;;;;;1.81;65.26;99644.66;8860180;33;20251;-72
2021/04/06 17:33:39;;;;;;;2.07;1.07;;;;;;;0.16;70.43;99647.25;8853732;33;20230;-72
2021/04/06 17:38:42;;;;;;;1.37;1.10;;;;;;;-0.10;74.21;99686.34;8736966;33;20218;-72
2021/04/06 17:43:48;;;;;;;1.90;1.20;;;;;;;-0.16;75.00;99680.53;8854030;33;20237;-73
2021/04/06 17:48:50;;;;;;;5.27;1.63;;;;;;;0.02;75.47;99679.59;8853719;33;20782;-71
2021/04/06 17:53:52;;;;;;;2.33;1.23;;;;;;;-0.24;75.16;99662.41;8814333;33;20226;-71
2021/04/06 17:58:55;;;;;;;4.53;1.60;;;;;;;-0.20;75.75;99665.75;8799212;33;20234;-71
2021/04/06 18:03:58;;;;;;;5.27;1.70;;;;;;;-0.29;75.98;99678.44;8853074;33;20723;-71
2021/04/06 18:09:00;;;;;;;4.57;1.60;;;;;;;-0.50;75.64;99684.72;8853817;33;20249;-71
2021/04/06 18:14:03;;;;;;;3.53;1.73;;;;;;;-0.47;75.84;99694.28;8853985;33;20262;-72
2021/04/06 18:19:05;;;;;;;2.30;2.10;;;;;;;-0.79;76.04;99691.34;8858584;33;20615;-72
2021/04/06 18:24:09;;;;;;;5.07;2.07;;;;;;;-0.93;76.33;99685.81;8853279;33;20275;-72
2021/04/06 18:29:14;;;;;;;2.10;1.40;;;;;;;-0.81;75.53;99687.91;8853128;33;20268;-72
2021/04/06 18:34:17;;;;;;;2.30;1.90;;;;;;;-0.56;74.75;99706.97;8852691;33;20222;-72
2021/04/06 18:39:21;;;;;;;3.30;1.60;;;;;;;-0.54;74.86;99712.19;8852498;33;20666;-72
2021/04/06 18:44:24;;;;;;;2.80;2.00;;;;;;;-0.64;74.69;99713.53;8850868;33;20262;-72
2021/04/06 18:49:27;;;;;;;3.90;1.90;;;;;;;-0.66;74.50;99712.72;8852395;33;20268;-72
2021/04/06 18:54:30;;;;;;;5.60;2.10;;;;;;;-0.75;73.73;99720.13;8853231;33;20230;-71
2021/04/06 18:59:34;;;;;;;6.13;2.40;;;;;;;-0.71;72.80;99726.16;8852870;33;20229;-72
2021/04/06 19:04:37;;;;;;;3.03;1.53;;;;;;;-0.96;73.16;99734.28;8854513;33;20226;-72
2021/04/06 19:09:39;;;;;;;3.07;1.93;;;;;;;-0.84;73.50;99736.38;8832396;33;20214;-72
2021/04/06 19:14:45;;;;;;;6.97;3.30;;;;;;;-0.48;74.20;99740.94;8856903;33;20723;-72
2021/04/06 19:19:47;;;;;;;2.90;2.03;;;;;;;-0.25;74.94;99736.38;8856541;33;20233;-72
2021/04/06 19:24:50;;;;;;;3.13;2.30;;;;;;;-0.40;76.19;99745.88;8857093;33;20232;-72
2021/04/06 19:29:53;;;;;;;2.57;2.10;;;;;;;-0.82;77.60;99745.09;8824000;33;20226;-72
2021/04/06 19:34:56;;;;;;;3.30;2.03;;;;;;;-0.81;78.50;99733.59;8812139;33;20223;-72
2021/04/06 19:39:58;;;;;;;3.33;2.17;;;;;;;-0.47;77.61;99740.00;8830484;33;20270;-71
2021/04/06 19:45:02;;;;;;;5.03;2.47;;;;;;;-0.51;77.68;99733.16;8821645;33;20238;-71
2021/04/06 19:50:08;;;;;;;3.63;2.77;;;;;;;-0.57;78.14;99750.13;8855852;33;20236;-72
2021/04/06 19:55:14;;;;;;;4.00;2.40;;;;;;;-0.89;78.21;99751.53;8857796;33;20897;-72
2021/04/06 20:00:24;;;;;;;5.43;2.40;;;;;;;-0.61;77.82;99752.97;8853525;33;20738;-71
2021/04/06 20:05:26;;;;;;;6.10;2.30;;;;;;;-0.43;77.62;99767.13;8855829;33;20225;-71
2021/04/06 20:10:29;;;;;;;6.77;2.67;;;;;;;-0.31;76.86;99771.81;8856310;33;20241;-71
2021/04/06 20:15:40;;;;;;;5.07;2.20;;;;;;;-0.17;76.65;99776.47;8827918;33;20233;-71
2021/04/06 20:20:48;;;;;;;7.17;2.17;;;;;;;-0.19;76.10;99773.91;8798160;33;20251;-71
2021/04/06 20:25:53;;;;;;;4.77;2.10;;;;;;;-0.19;76.33;99778.31;8797513;33;20218;-71
2021/04/06 20:31:00;;;;;;;4.23;2.10;;;;;;;-0.20;76.20;99768.69;8797480;33;20230;-71
2021/04/06 20:36:05;;;;;;;4.03;2.20;;;;;;;-0.06;76.43;99764.47;8797009;33;20223;-71
2021/04/06 20:41:08;;;;;;;7.33;2.60;;;;;;;-0.43;76.46;99762.69;8729476;33;20318;-71
2021/04/06 20:46:11;;;;;;;9.03;3.23;;;;;;;-0.12;75.94;99767.41;8713911;33;20310;-71
2021/04/06 20:51:14;;;;;;;5.10;2.50;;;;;;;-0.14;75.48;99763.13;8738407;33;20235;-71
2021/04/06 20:56:16;;;;;;;4.53;2.80;;;;;;;-0.29;75.58;99764.69;8765075;33;20281;-71
2021/04/06 21:01:19;;;;;;;3.23;2.67;;;;;;;-0.13;75.00;99759.56;8797976;33;20227;-71
2021/04/06 21:06:33;;;;;;;4.67;2.87;;;;;;;-0.15;74.27;99767.53;8770809;33;20234;-71
2021/04/06 21:11:37;;;;;;;4.17;2.93;;;;;;;-0.51;73.97;99756.91;8795287;33;20234;-71
2021/04/06 21:16:40;;;;;;;6.07;3.10;;;;;;;-0.62;74.78;99764.44;8795827;33;20749;-71
2021/04/06 21:21:42;;;;;;;7.57;3.20;;;;;;;-0.36;75.22;99782.56;8796026;33;21404;-71
2021/04/06 21:26:44;;;;;;;4.97;2.23;;;;;;;-0.80;74.15;99768.75;8795317;33;20227;-71
2021/04/06 21:31:47;;;;;;;7.83;3.20;;;;;;;-0.65;74.40;99778.63;8795582;33;20643;-71
2021/04/06 21:36:49;;;;;;;3.13;2.23;;;;;;;-0.80;74.13;99771.38;8795308;33;20238;-71
2021/04/06 21:41:52;;;;;;;3.00;2.70;;;;;;;-0.40;74.41;99782.81;8795574;33;20230;-71
2021/04/06 21:46:55;;;;;;;4.50;2.60;;;;;;;-0.19;74.57;99781.84;8795289;33;20241;-71
2021/04/06 21:51:57;;;;;;;5.43;2.70;;;;;;;-0.78;74.17;99782.72;8795651;33;20235;-71
2021/04/06 21:56:59;;;;;;;5.50;2.83;;;;;;;-0.62;75.02;99791.69;8794775;33;20644;-71
2021/04/06 22:02:02;;;;;;;6.13;3.13;;;;;;;-0.79;74.31;99791.56;8795113;33;20219;-71
2021/04/06 22:07:05;;;;;;;3.37;3.03;;;;;;;-0.72;75.23;99796.47;8794714;33;20751;-71
2021/04/06 22:12:07;;;;;;;5.20;2.93;;;;;;;-0.54;74.62;99808.03;8795066;33;20230;-70
2021/04/06 22:17:14;;;;;;;3.23;2.97;;;;;;;-0.67;74.69;99808.63;8833843;33;20352;-71
2021/04/06 22:22:18;;;;;;;4.33;3.00;;;;;;;-0.64;74.34;99811.13;8853716;33;20229;-71
2021/04/06 22:27:21;;;;;;;5.20;2.70;;;;;;;-0.39;74.64;99811.75;8853339;33;20253;-71
2021/04/06 22:32:28;;;;;;;8.30;2.77;;;;;;;-0.95;74.65;99815.94;8794428;33;20252;-71
2021/04/06 22:37:32;;;;;;;4.17;3.03;;;;;;;-0.93;75.02;99817.66;8793820;33;20223;-71
2021/04/06 22:42:34;;;;;;;6.70;3.20;;;;;;;-0.85;75.14;99832.25;8794233;33;20229;-71
2021/04/06 22:47:38;;;;;;;3.93;2.53;;;;;;;-0.85;74.47;99823.47;8793768;33;20231;-71
2021/04/06 22:52:40;;;;;;;8.40;3.97;;;;;;;-0.63;74.90;99826.03;8794114;33;20211;-70
2021/04/06 22:57:43;;;;;;;6.33;3.10;;;;;;;-1.04;75.81;99831.28;8794259;33;20223;-70
2021/04/06 23:02:46;;;;;;;8.70;3.43;;;;;;;-0.96;75.22;99847.63;8794294;33;20274;-70
2021/04/06 23:07:50;;;;;;;7.43;4.23;;;;;;;-1.02;75.91;99854.03;8794019;33;20226;-70
2021/04/06 23:12:53;;;;;;;5.77;3.97;;;;;;;-0.68;75.05;99851.78;8793506;33;20219;-70
2021/04/06 23:17:58;;;;;;;11.07;4.20;;;;;;;-0.88;75.44;99864.00;8793900;33;20231;-71
2021/04/06 23:23:01;;;;;;;9.73;4.20;;;;;;;-0.92;75.79;99880.03;8794936;33;20227;-70
2021/04/06 23:28:04;;;;;;;7.50;4.20;;;;;;;-0.66;76.39;99878.91;8793709;33;20242;-71
2021/04/06 23:33:09;;;;;;;8.70;4.77;;;;;;;-0.63;76.93;99876.16;8793378;33;20227;-70
2021/04/06 23:38:14;;;;;;;8.53;4.63;;;;;;;-0.72;77.35;99872.97;8792324;33;20246;-70
2021/04/06 23:43:16;;;;;;;10.03;4.87;;;;;;;-0.99;77.74;99871.50;8792976;33;20231;-70
2021/04/06 23:48:19;;;;;;;8.70;4.03;;;;;;;-0.70;76.87;99874.72;8793531;33;20231;-71
2021/04/06 23:53:21;;;;;;;5.40;3.67;;;;;;;-0.82;76.17;99879.59;8797531;33;20234;-70
2021/04/06 23:58:24;;;;;;;13.97;5.10;;;;;;;-0.30;75.21;99879.13;8797875;33;20767;-70
